createdAt,value
2019-03-17T00:00:59.874Z,4.10
2019-03-17T00:03:32.704Z,4.10
2019-03-17T00:06:00.350Z,4.10
2019-03-17T00:08:27.995Z,4.00
2019-03-17T00:10:55.623Z,4.00
2019-03-17T00:13:23.275Z,4.10
2019-03-17T00:15:50.894Z,4.00
2019-03-17T00:18:18.541Z,4.00
2019-03-17T00:20:46.170Z,4.00
2019-03-17T00:23:13.814Z,3.90
2019-03-17T00:25:41.439Z,3.90
2019-03-17T00:28:09.073Z,3.90
2019-03-17T00:30:36.714Z,3.70
2019-03-17T00:33:05.266Z,3.40
2019-03-17T00:35:32.919Z,3.30
2019-03-17T00:38:00.622Z,3.20
2019-03-17T00:40:28.255Z,3.10
2019-03-17T00:42:55.963Z,3.20
2019-03-17T00:45:23.599Z,3.10
2019-03-17T00:47:51.238Z,3.10
2019-03-17T00:50:18.863Z,3.00
2019-03-17T00:52:46.511Z,2.90
2019-03-17T00:55:14.138Z,2.90
2019-03-17T00:57:41.774Z,2.90
2019-03-17T01:00:10.975Z,2.90
2019-03-17T01:02:38.627Z,2.90
2019-03-17T01:05:06.321Z,3.00
2019-03-17T01:07:33.968Z,3.00
2019-03-17T01:10:01.608Z,3.10
2019-03-17T01:12:29.229Z,3.10
2019-03-17T01:14:56.860Z,3.10
2019-03-17T01:17:24.499Z,3.10
2019-03-17T01:19:52.126Z,3.10
2019-03-17T01:22:19.749Z,3.10
2019-03-17T01:24:47.398Z,3.00
2019-03-17T01:27:15.021Z,2.90
2019-03-17T01:29:42.677Z,2.70
2019-03-17T01:32:10.294Z,2.70
2019-03-17T01:34:37.937Z,2.70
2019-03-17T01:37:05.574Z,2.70
2019-03-17T01:39:33.211Z,2.70
2019-03-17T01:42:00.842Z,2.70
2019-03-17T01:44:28.485Z,2.80
2019-03-17T01:46:56.111Z,2.80
2019-03-17T01:49:23.760Z,2.80
2019-03-17T01:51:51.387Z,2.70
2019-03-17T01:54:19.099Z,2.60
2019-03-17T01:56:46.731Z,2.60
2019-03-17T01:59:14.377Z,2.80
2019-03-17T02:01:42.096Z,2.70
2019-03-17T02:04:09.735Z,2.60
2019-03-17T02:06:37.374Z,2.30
2019-03-17T02:09:06.151Z,2.40
2019-03-17T02:11:33.786Z,2.30
2019-03-17T02:14:01.428Z,2.30
2019-03-17T02:16:29.058Z,2.30
2019-03-17T02:18:56.694Z,2.20
2019-03-17T02:21:24.331Z,2.10
2019-03-17T02:23:52.054Z,2.10
2019-03-17T02:26:19.682Z,2.10
2019-03-17T02:28:47.321Z,2.10
2019-03-17T02:31:14.958Z,2.00
2019-03-17T02:33:42.587Z,2.10
2019-03-17T02:36:10.239Z,2.00
2019-03-17T02:38:37.875Z,2.00
2019-03-17T02:41:05.519Z,2.00
2019-03-17T02:43:33.142Z,2.00
2019-03-17T02:46:03.042Z,1.90
2019-03-17T02:48:30.144Z,1.80
2019-03-17T02:50:57.811Z,1.80
2019-03-17T02:53:41.626Z,1.80
2019-03-17T02:56:09.279Z,1.80
2019-03-17T02:58:36.921Z,1.80
2019-03-17T03:01:04.551Z,1.80
2019-03-17T03:03:33.209Z,1.90
2019-03-17T03:06:00.898Z,1.90
2019-03-17T03:08:28.534Z,2.00
2019-03-17T03:10:56.178Z,2.10
2019-03-17T03:13:24.756Z,2.10
2019-03-17T03:15:52.402Z,2.10
2019-03-17T03:18:20.036Z,2.20
2019-03-17T03:20:47.682Z,2.20
2019-03-17T03:23:18.350Z,2.20
2019-03-17T03:25:45.995Z,2.20
2019-03-17T03:28:13.626Z,2.30
2019-03-17T03:30:41.287Z,2.40
2019-03-17T03:33:08.910Z,2.50
2019-03-17T03:35:36.563Z,2.50
2019-03-17T03:38:04.239Z,2.50
2019-03-17T03:40:32.074Z,2.50
2019-03-17T03:42:59.948Z,2.50
2019-03-17T03:45:27.581Z,2.10
2019-03-17T03:47:55.226Z,2.10
2019-03-17T03:50:22.859Z,2.00
2019-03-17T03:52:50.503Z,1.70
2019-03-17T03:55:18.146Z,1.60
2019-03-17T03:57:45.778Z,1.60
2019-03-17T04:00:16.438Z,1.50
2019-03-17T04:02:45.067Z,1.50
2019-03-17T04:05:12.701Z,1.40
2019-03-17T04:07:40.466Z,1.40
2019-03-17T04:10:08.803Z,1.40
2019-03-17T04:12:36.430Z,1.50
2019-03-17T04:15:05.028Z,1.50
2019-03-17T04:17:32.675Z,1.70
2019-03-17T04:20:00.458Z,1.80
2019-03-17T04:22:28.123Z,1.80
2019-03-17T04:24:55.755Z,1.90
2019-03-17T04:27:23.409Z,2.00
2019-03-17T04:29:51.028Z,1.90
2019-03-17T04:32:18.752Z,1.90
2019-03-17T04:34:46.378Z,1.90
2019-03-17T04:37:14.023Z,1.80
2019-03-17T04:39:41.662Z,1.70
2019-03-17T04:42:09.303Z,1.70
2019-03-17T04:44:36.940Z,1.60
2019-03-17T04:47:04.578Z,1.60
2019-03-17T04:49:32.207Z,1.50
2019-03-17T04:51:59.850Z,1.50
2019-03-17T04:54:27.485Z,1.40
2019-03-17T04:56:55.127Z,1.30
2019-03-17T04:59:22.762Z,1.20
2019-03-17T05:01:50.409Z,1.00
2019-03-17T05:04:18.047Z,0.90
2019-03-17T05:06:52.772Z,0.90
2019-03-17T05:09:15.039Z,0.90
2019-03-17T05:11:42.666Z,0.90
2019-03-17T05:14:10.314Z,0.90
2019-03-17T05:16:37.967Z,1.00
2019-03-17T05:19:05.610Z,1.00
2019-03-17T05:21:33.242Z,0.90
2019-03-17T05:24:03.924Z,0.90
2019-03-17T05:26:31.553Z,1.00
2019-03-17T05:28:59.190Z,1.10
2019-03-17T05:31:26.829Z,1.30
2019-03-17T05:33:54.470Z,1.50
2019-03-17T05:36:22.095Z,1.60
2019-03-17T05:38:49.746Z,1.80
2019-03-17T05:41:17.363Z,1.90
2019-03-17T05:43:45.008Z,2.00
2019-03-17T05:46:12.634Z,2.10
2019-03-17T05:48:40.277Z,2.10
2019-03-17T05:51:07.907Z,2.20
2019-03-17T05:53:35.550Z,2.10
2019-03-17T05:56:03.177Z,2.20
2019-03-17T05:58:30.826Z,2.20
2019-03-17T06:00:58.445Z,2.30
2019-03-17T06:03:26.096Z,2.30
2019-03-17T06:05:53.730Z,2.40
2019-03-17T06:08:21.367Z,2.50
2019-03-17T06:10:49.007Z,2.70
2019-03-17T06:13:16.642Z,2.80
2019-03-17T06:15:44.275Z,2.90
2019-03-17T06:18:11.914Z,3.00
2019-03-17T06:20:39.544Z,3.10
2019-03-17T06:23:08.106Z,3.30
2019-03-17T06:28:03.107Z,3.50
2019-03-17T06:30:30.738Z,3.70
2019-03-17T06:32:58.402Z,3.80
2019-03-17T06:35:26.030Z,3.90
2019-03-17T06:37:53.683Z,4.00
2019-03-17T06:40:21.365Z,4.10
2019-03-17T06:45:16.730Z,4.50
2019-03-17T06:47:44.366Z,4.70
2019-03-17T06:50:15.259Z,4.90
2019-03-17T06:52:53.671Z,4.90
2019-03-17T06:55:21.691Z,5.20
2019-03-17T06:57:49.323Z,5.20
2019-03-17T07:00:16.958Z,5.10
2019-03-17T07:02:50.440Z,5.10
2019-03-17T07:05:18.086Z,5.10
2019-03-17T07:07:45.718Z,5.10
2019-03-17T07:10:13.355Z,5.30
2019-03-17T07:12:40.991Z,5.40
2019-03-17T07:15:09.593Z,5.30
2019-03-17T07:17:37.222Z,5.40
2019-03-17T07:20:06.413Z,5.50
2019-03-17T07:22:35.010Z,5.50
2019-03-17T07:25:02.653Z,5.50
2019-03-17T07:27:30.282Z,5.60
2019-03-17T07:29:57.923Z,5.60
2019-03-17T07:32:33.347Z,5.60
2019-03-17T07:35:01.016Z,5.80
2019-03-17T07:37:28.630Z,5.90
2019-03-17T07:39:56.280Z,6.10
2019-03-17T07:42:32.378Z,6.20
2019-03-17T07:44:58.989Z,6.30
2019-03-17T07:47:26.625Z,6.40
2019-03-17T07:49:54.267Z,6.50
2019-03-17T07:52:21.899Z,6.70
2019-03-17T07:57:16.903Z,7.00
2019-03-17T07:59:44.544Z,7.10
2019-03-17T08:02:12.177Z,7.20
2019-03-17T08:07:08.835Z,7.60
2019-03-17T08:09:36.479Z,7.90
2019-03-17T08:12:04.182Z,8.00
2019-03-17T08:16:59.224Z,8.60
2019-03-17T08:22:08.516Z,9.00
2019-03-17T08:24:36.163Z,9.20
2019-03-17T08:27:03.866Z,9.30
2019-03-17T08:29:31.514Z,9.50
2019-03-17T08:32:02.406Z,9.50
2019-03-17T08:34:30.047Z,9.70
2019-03-17T08:39:25.049Z,10.00
2019-03-17T08:41:54.691Z,10.10
2019-03-17T08:46:49.714Z,10.40
2019-03-17T08:49:17.371Z,10.50
2019-03-17T08:51:45.005Z,10.70
2019-03-17T08:54:13.634Z,10.90
2019-03-17T08:56:41.274Z,10.90
2019-03-17T08:59:08.999Z,11.10
2019-03-17T09:01:36.650Z,11.30
2019-03-17T09:04:04.282Z,11.40
2019-03-17T09:06:31.923Z,11.50
2019-03-17T09:08:59.566Z,11.70
2019-03-17T09:11:27.203Z,11.70
2019-03-17T09:13:54.839Z,11.70
2019-03-17T09:18:49.922Z,12.10
2019-03-17T09:21:17.563Z,12.30
2019-03-17T09:23:49.238Z,12.20
2019-03-17T09:26:16.890Z,12.30
2019-03-17T09:28:44.526Z,12.40
2019-03-17T09:33:42.217Z,12.50
2019-03-17T09:36:09.878Z,12.50
2019-03-17T09:38:46.790Z,12.50
2019-03-17T09:41:06.867Z,12.50
2019-03-17T09:43:35.442Z,12.60
2019-03-17T09:46:03.103Z,12.60
2019-03-17T09:48:30.730Z,12.50
2019-03-17T09:50:58.377Z,12.80
2019-03-17T09:53:28.491Z,12.90
2019-03-17T09:55:55.382Z,13.00
2019-03-17T09:58:23.019Z,13.00
2019-03-17T10:00:50.663Z,13.10
2019-03-17T10:03:18.297Z,13.10
2019-03-17T10:05:45.944Z,13.20
2019-03-17T10:08:13.583Z,13.00
2019-03-17T10:10:41.255Z,13.20
2019-03-17T10:13:11.998Z,13.20
2019-03-17T10:15:39.647Z,13.30
2019-03-17T10:20:34.664Z,13.60
2019-03-17T10:23:02.290Z,13.90
2019-03-17T10:25:29.936Z,14.10
2019-03-17T10:27:57.679Z,14.10
2019-03-17T10:30:25.323Z,14.40
2019-03-17T10:32:52.963Z,14.20
2019-03-17T10:35:20.663Z,14.50
2019-03-17T10:40:16.255Z,14.90
2019-03-17T10:42:45.890Z,14.90
2019-03-17T10:45:14.229Z,14.40
2019-03-17T10:47:41.926Z,13.90
2019-03-17T10:50:13.391Z,13.70
2019-03-17T10:52:50.849Z,13.60
2019-03-17T11:00:19.430Z,15.50
2019-03-17T11:02:47.062Z,15.40
2019-03-17T11:05:14.722Z,15.60
2019-03-17T11:07:42.362Z,15.50
2019-03-17T11:10:10.684Z,15.80
2019-03-17T11:12:39.213Z,15.90
2019-03-17T11:17:34.230Z,16.30
2019-03-17T11:20:01.876Z,16.40
2019-03-17T11:22:29.502Z,16.50
2019-03-17T11:24:57.151Z,16.10
2019-03-17T11:27:24.795Z,16.30
2019-03-17T11:29:52.438Z,15.70
2019-03-17T11:32:27.170Z,14.80
2019-03-17T11:34:54.804Z,14.10
2019-03-17T11:37:23.654Z,14.10
2019-03-17T11:39:51.668Z,14.30
2019-03-17T11:42:27.346Z,14.20
2019-03-17T11:44:54.990Z,13.90
2019-03-17T11:47:22.643Z,14.90
2019-03-17T11:49:50.275Z,15.50
2019-03-17T11:52:17.913Z,14.80
2019-03-17T11:54:45.555Z,14.70
2019-03-17T11:57:13.207Z,14.60
2019-03-17T11:59:40.835Z,14.10
2019-03-17T12:02:09.458Z,13.90
2019-03-17T12:07:04.470Z,13.40
2019-03-17T12:09:32.098Z,13.20
2019-03-17T12:11:59.742Z,13.10
2019-03-17T12:14:27.386Z,13.30
2019-03-17T12:16:55.030Z,13.80
2019-03-17T12:19:22.678Z,14.40
2019-03-17T12:21:50.319Z,15.00
2019-03-17T12:24:17.959Z,14.60
2019-03-17T12:26:45.602Z,14.80
2019-03-17T12:29:13.231Z,14.30
2019-03-17T12:31:40.895Z,14.00
2019-03-17T12:34:10.474Z,13.50
2019-03-17T12:36:38.126Z,13.70
2019-03-17T12:39:06.130Z,13.90
2019-03-17T12:41:33.774Z,13.90
2019-03-17T12:44:03.371Z,14.00
2019-03-17T12:46:31.017Z,13.60
2019-03-17T12:48:58.650Z,13.20
2019-03-17T12:51:26.302Z,13.00
2019-03-17T12:53:53.942Z,12.80
2019-03-17T12:56:21.588Z,12.60
2019-03-17T12:58:49.218Z,12.60
2019-03-17T13:01:16.886Z,12.50
2019-03-17T13:06:17.859Z,12.40
2019-03-17T13:08:45.503Z,12.40
2019-03-17T13:11:13.146Z,12.30
2019-03-17T13:13:40.782Z,12.30
2019-03-17T13:16:08.439Z,12.20
2019-03-17T13:18:36.076Z,12.20
2019-03-17T13:21:03.725Z,12.30
2019-03-17T13:23:32.300Z,12.30
2019-03-17T13:25:59.940Z,12.30
2019-03-17T13:28:27.583Z,12.50
2019-03-17T13:30:55.226Z,12.60
2019-03-17T13:33:22.882Z,12.80
2019-03-17T13:35:50.516Z,12.90
2019-03-17T13:38:18.162Z,12.80
2019-03-17T13:40:45.794Z,12.50
2019-03-17T13:43:13.443Z,12.30
2019-03-17T13:45:41.071Z,12.10
2019-03-17T13:48:08.727Z,11.90
2019-03-17T13:50:36.363Z,11.50
2019-03-17T13:53:04.005Z,10.90
2019-03-17T13:58:03.352Z,10.60
2019-03-17T14:00:30.979Z,10.50
2019-03-17T14:02:58.619Z,10.50
2019-03-17T14:05:26.259Z,10.50
2019-03-17T14:07:53.918Z,10.00
2019-03-17T14:10:21.551Z,9.60
2019-03-17T14:15:16.564Z,8.80
2019-03-17T14:17:44.288Z,8.30
2019-03-17T14:20:15.713Z,7.90
2019-03-17T14:30:06.996Z,7.40
2019-03-17T14:32:34.635Z,7.40
2019-03-17T14:35:02.270Z,7.00
2019-03-17T14:37:29.912Z,7.10
2019-03-17T14:39:57.538Z,7.20
2019-03-17T14:42:25.178Z,7.20
2019-03-17T14:44:52.806Z,7.20
2019-03-17T14:47:20.451Z,7.20
2019-03-17T14:49:48.094Z,7.20
2019-03-17T14:52:15.754Z,7.00
2019-03-17T14:54:43.375Z,7.00
2019-03-17T14:57:11.019Z,6.90
2019-03-17T14:59:38.646Z,6.70
2019-03-17T15:02:06.294Z,6.60
2019-03-17T15:04:33.914Z,6.40
2019-03-17T15:09:28.923Z,6.10
2019-03-17T15:11:56.566Z,6.20
2019-03-17T15:14:24.195Z,6.00
2019-03-17T15:16:51.826Z,5.80
2019-03-17T15:19:19.509Z,5.80
2019-03-17T15:21:47.135Z,5.80
2019-03-17T15:24:14.782Z,5.90
2019-03-17T15:26:42.407Z,5.90
2019-03-17T15:29:10.136Z,5.70
2019-03-17T15:31:37.755Z,5.60
2019-03-17T15:34:05.390Z,5.50
2019-03-17T15:36:33.026Z,5.60
2019-03-17T15:39:00.678Z,5.70
2019-03-17T15:41:28.311Z,5.60
2019-03-17T15:43:55.946Z,5.70
2019-03-17T15:46:23.578Z,5.80
2019-03-17T15:48:51.219Z,5.70
2019-03-17T15:51:20.605Z,5.90
2019-03-17T15:53:50.826Z,5.80
2019-03-17T15:56:18.455Z,5.70
2019-03-17T15:58:46.098Z,5.70
2019-03-17T16:01:13.722Z,5.70
2019-03-17T16:03:41.374Z,5.60
2019-03-17T16:06:09.002Z,5.70
2019-03-17T16:08:36.651Z,5.70
2019-03-17T16:11:04.278Z,5.70
2019-03-17T16:13:31.910Z,5.80
2019-03-17T16:15:59.534Z,5.80
2019-03-17T16:18:27.173Z,5.80
2019-03-17T16:20:54.822Z,5.80
2019-03-17T16:23:22.461Z,5.90
2019-03-17T16:25:50.644Z,6.00
2019-03-17T16:28:18.403Z,6.00
2019-03-17T16:30:46.046Z,6.00
2019-03-17T16:33:13.703Z,5.90
2019-03-17T16:35:41.339Z,5.90
2019-03-17T16:38:09.003Z,5.90
2019-03-17T16:40:36.625Z,6.00
2019-03-17T16:43:04.939Z,6.00
2019-03-17T16:45:32.559Z,6.00
2019-03-17T16:48:00.268Z,6.00
2019-03-17T16:50:27.901Z,6.00
2019-03-17T16:52:55.535Z,6.00
2019-03-17T16:55:23.183Z,5.90
2019-03-17T16:57:50.838Z,5.90
2019-03-17T17:00:19.596Z,5.90
2019-03-17T17:02:47.671Z,5.90
2019-03-17T17:05:16.186Z,5.90
2019-03-17T17:07:43.886Z,5.90
2019-03-17T17:10:15.918Z,5.80
2019-03-17T17:12:43.660Z,5.80
2019-03-17T17:15:14.914Z,5.80
2019-03-17T17:17:42.538Z,5.80
2019-03-17T17:20:11.721Z,5.80
2019-03-17T17:22:39.351Z,5.80
2019-03-17T17:25:08.162Z,5.70
2019-03-17T17:27:35.791Z,5.60
2019-03-17T17:30:05.106Z,5.60
2019-03-17T17:32:32.783Z,5.60
2019-03-17T17:35:00.423Z,5.60
2019-03-17T17:37:28.054Z,5.60
2019-03-17T17:39:55.695Z,5.60
2019-03-17T17:42:24.158Z,5.60
2019-03-17T17:44:51.798Z,5.60
2019-03-17T17:47:19.426Z,5.50
2019-03-17T17:49:47.070Z,5.50
2019-03-17T17:52:14.697Z,5.50
2019-03-17T17:54:42.330Z,5.50
2019-03-17T17:57:09.962Z,5.50
2019-03-17T17:59:37.611Z,5.50
2019-03-17T18:02:05.238Z,5.40
2019-03-17T18:04:32.882Z,5.40
2019-03-17T18:07:00.534Z,5.40
2019-03-17T18:09:28.165Z,5.40
2019-03-17T18:11:55.802Z,5.40
2019-03-17T18:14:23.451Z,5.40
2019-03-17T18:16:51.074Z,5.40
2019-03-17T18:21:46.090Z,5.40
2019-03-17T18:24:13.713Z,5.40
2019-03-17T18:26:41.350Z,5.40
2019-03-17T18:29:08.992Z,5.40
2019-03-17T18:31:36.614Z,5.30
2019-03-17T18:34:04.326Z,5.30
2019-03-17T18:36:31.972Z,5.30
2019-03-17T18:38:59.622Z,5.30
2019-03-17T18:41:27.314Z,5.30
2019-03-17T18:43:54.947Z,5.30
2019-03-17T18:46:22.595Z,5.40
2019-03-17T18:48:50.227Z,5.40
2019-03-17T18:51:17.870Z,5.40
2019-03-17T18:53:45.494Z,5.40
2019-03-17T18:56:13.137Z,5.40
2019-03-17T18:58:40.770Z,5.40
2019-03-17T19:01:08.406Z,5.50
2019-03-17T19:03:36.039Z,5.40
2019-03-17T19:06:03.682Z,5.40
2019-03-17T19:08:31.322Z,5.40
2019-03-17T19:10:58.957Z,5.50
2019-03-17T19:13:26.587Z,5.50
2019-03-17T19:15:54.230Z,5.50
2019-03-17T19:18:21.859Z,5.50
2019-03-17T19:20:49.502Z,5.60
2019-03-17T19:23:17.138Z,5.60
2019-03-17T19:25:44.787Z,5.60
2019-03-17T19:28:12.436Z,5.60
2019-03-17T19:30:40.086Z,5.60
2019-03-17T19:33:07.718Z,5.50
2019-03-17T19:35:35.346Z,5.50
2019-03-17T19:38:02.982Z,5.60
2019-03-17T19:40:30.622Z,5.50
2019-03-17T19:42:59.665Z,5.50
2019-03-17T19:45:27.661Z,5.50
2019-03-17T19:47:55.285Z,5.50
2019-03-17T19:50:23.005Z,5.50
2019-03-17T19:52:50.630Z,5.40
2019-03-17T19:55:18.348Z,5.50
2019-03-17T19:57:45.972Z,5.40
2019-03-17T20:00:15.150Z,5.30
2019-03-17T20:02:43.258Z,5.40
2019-03-17T20:05:10.967Z,5.30
2019-03-17T20:07:38.599Z,5.30
2019-03-17T20:10:22.604Z,5.30
2019-03-17T20:12:50.236Z,5.30
2019-03-17T20:15:17.878Z,5.30
2019-03-17T20:17:45.515Z,5.20
2019-03-17T20:20:16.182Z,5.20
2019-03-17T20:22:43.818Z,5.20
2019-03-17T20:27:38.818Z,5.10
2019-03-17T20:30:08.239Z,5.10
2019-03-17T20:32:35.870Z,5.10
2019-03-17T20:35:04.879Z,5.10
2019-03-17T20:37:32.548Z,5.10
2019-03-17T20:40:00.389Z,5.10
2019-03-17T20:42:28.095Z,5.10
2019-03-17T20:44:55.730Z,5.10
2019-03-17T20:47:23.358Z,5.10
2019-03-17T20:49:50.989Z,5.00
2019-03-17T20:52:18.637Z,5.00
2019-03-17T20:54:46.267Z,5.00
2019-03-17T20:57:13.904Z,5.00
2019-03-17T20:59:41.557Z,4.90
2019-03-17T21:02:09.186Z,4.90
2019-03-17T21:04:36.819Z,4.90
2019-03-17T21:07:04.461Z,4.90
2019-03-17T21:09:32.090Z,4.90
2019-03-17T21:11:59.735Z,4.90
2019-03-17T21:14:27.372Z,4.80
2019-03-17T21:16:55.011Z,4.80
2019-03-17T21:21:50.011Z,4.80
2019-03-17T21:24:17.639Z,4.70
2019-03-17T21:26:45.282Z,4.70
2019-03-17T21:29:12.922Z,4.70
2019-03-17T21:31:40.566Z,4.70
2019-03-17T21:34:09.167Z,4.70
2019-03-17T21:36:36.810Z,4.60
2019-03-17T21:39:05.820Z,4.60
2019-03-17T21:41:33.474Z,4.60
2019-03-17T21:44:01.103Z,4.60
2019-03-17T21:46:28.747Z,4.60
2019-03-17T21:48:56.378Z,4.60
2019-03-17T21:51:24.027Z,4.50
2019-03-17T21:53:51.658Z,4.50
2019-03-17T21:56:19.313Z,4.50
2019-03-17T21:58:46.934Z,4.50
2019-03-17T22:03:41.937Z,4.40
2019-03-17T22:06:09.579Z,4.40
2019-03-17T22:08:37.237Z,4.40
2019-03-17T22:11:04.942Z,4.40
2019-03-17T22:13:32.580Z,4.40
2019-03-17T22:16:00.198Z,4.30
2019-03-17T22:18:27.839Z,4.30
2019-03-17T22:20:55.467Z,4.30
2019-03-17T22:23:29.077Z,4.30
2019-03-17T22:25:56.686Z,4.30
2019-03-17T22:28:24.330Z,4.30
2019-03-17T22:30:51.959Z,4.20
2019-03-17T22:33:20.624Z,4.20
2019-03-17T22:35:48.227Z,4.10
2019-03-17T22:38:15.870Z,4.20
2019-03-17T22:40:43.510Z,4.20
2019-03-17T22:43:11.162Z,4.20
2019-03-17T22:45:38.791Z,4.20
2019-03-17T22:48:06.426Z,4.10
2019-03-17T22:50:34.054Z,4.10
2019-03-17T22:53:01.702Z,4.10
2019-03-17T22:55:29.335Z,4.20
2019-03-17T22:57:59.203Z,4.20
2019-03-17T23:00:30.766Z,4.20
2019-03-17T23:02:59.460Z,4.20
2019-03-17T23:05:27.086Z,4.20
2019-03-17T23:07:54.752Z,4.20
2019-03-17T23:10:22.427Z,4.30
2019-03-17T23:12:51.009Z,4.30
2019-03-17T23:15:18.702Z,4.40
2019-03-17T23:17:46.338Z,4.40
2019-03-17T23:20:14.455Z,4.10
2019-03-17T23:22:42.163Z,3.70
2019-03-17T23:25:10.366Z,3.50
2019-03-17T23:27:38.018Z,3.30
2019-03-17T23:30:07.194Z,3.00
2019-03-17T23:32:34.871Z,2.80
2019-03-17T23:35:02.503Z,2.70
2019-03-17T23:37:30.154Z,2.50
2019-03-17T23:39:57.782Z,2.40
2019-03-17T23:42:33.174Z,2.40
2019-03-17T23:45:00.798Z,2.30
2019-03-17T23:47:28.443Z,2.30
2019-03-17T23:49:56.079Z,2.10
2019-03-17T23:52:23.718Z,2.00
2019-03-17T23:54:51.364Z,2.00
2019-03-17T23:57:19.011Z,1.90
2019-03-17T23:59:46.639Z,1.80
